createdAt,value
2018-12-11T00:03:46.559Z,87.20
2018-12-11T00:08:50.590Z,87.50
2018-12-11T00:13:53.719Z,88.30
2018-12-11T00:18:56.888Z,88.10
2018-12-11T00:24:00.011Z,88.00
2018-12-11T00:29:03.427Z,87.80
2018-12-11T00:34:06.568Z,89.60
2018-12-11T00:39:09.853Z,90.70
2018-12-11T00:44:12.940Z,90.00
2018-12-11T00:49:16.150Z,90.40
2018-12-11T00:54:19.259Z,90.30
2018-12-11T00:59:22.436Z,90.10
2018-12-11T01:04:25.554Z,88.60
2018-12-11T01:09:28.680Z,88.10
2018-12-11T01:14:31.758Z,87.50
2018-12-11T01:19:34.872Z,87.40
2018-12-11T01:24:38.016Z,86.80
2018-12-11T01:29:41.184Z,86.70
2018-12-11T01:34:44.313Z,86.70
2018-12-11T01:39:47.437Z,87.40
2018-12-11T01:44:50.606Z,86.50
2018-12-11T01:49:53.692Z,87.50
2018-12-11T01:54:57.056Z,87.10
2018-12-11T02:00:00.174Z,86.90
2018-12-11T02:05:03.492Z,87.00
2018-12-11T02:10:07.201Z,87.30
2018-12-11T02:15:10.339Z,86.60
2018-12-11T02:20:13.439Z,86.90
2018-12-11T02:25:16.564Z,86.20
2018-12-11T02:30:19.650Z,86.30
2018-12-11T02:35:22.786Z,86.00
2018-12-11T02:40:25.887Z,85.80
2018-12-11T02:45:29.059Z,85.60
2018-12-11T02:50:32.470Z,85.60
2018-12-11T02:55:35.589Z,85.60
2018-12-11T03:00:38.808Z,84.80
2018-12-11T03:05:41.924Z,83.90
2018-12-11T03:10:45.043Z,85.00
2018-12-11T03:15:48.118Z,85.80
2018-12-11T03:20:51.224Z,86.20
2018-12-11T03:25:54.348Z,86.10
2018-12-11T03:30:57.468Z,86.00
2018-12-11T03:36:00.579Z,86.20
2018-12-11T03:41:03.732Z,86.40
2018-12-11T03:46:06.876Z,86.50
2018-12-11T03:51:10.021Z,87.70
2018-12-11T03:56:13.165Z,87.80
2018-12-11T04:01:16.312Z,88.30
2018-12-11T04:06:19.484Z,89.10
2018-12-11T04:11:22.630Z,88.20
2018-12-11T04:16:25.821Z,87.40
2018-12-11T04:21:29.008Z,88.30
2018-12-11T04:26:32.186Z,88.90
2018-12-11T04:31:35.328Z,88.70
2018-12-11T04:36:38.534Z,89.40
2018-12-11T04:41:41.737Z,90.50
2018-12-11T04:46:44.949Z,90.00
2018-12-11T04:51:48.085Z,90.10
2018-12-11T04:56:51.291Z,90.20
2018-12-11T05:01:54.564Z,89.50
2018-12-11T05:06:57.691Z,89.80
2018-12-11T05:12:00.749Z,89.90
2018-12-11T05:17:03.917Z,89.60
2018-12-11T05:22:07.047Z,89.40
2018-12-11T05:27:10.173Z,89.90
2018-12-11T05:32:13.351Z,89.50
2018-12-11T05:37:16.651Z,90.00
2018-12-11T05:42:19.763Z,90.10
2018-12-11T05:47:22.900Z,89.90
2018-12-11T05:52:25.988Z,90.00
2018-12-11T05:57:29.103Z,89.10
2018-12-11T06:02:32.339Z,89.20
2018-12-11T06:07:35.430Z,87.70
2018-12-11T06:12:38.512Z,86.80
2018-12-11T06:17:41.611Z,86.40
2018-12-11T06:22:44.752Z,84.90
2018-12-11T06:27:47.877Z,84.70
2018-12-11T06:32:51.011Z,85.20
2018-12-11T06:37:54.077Z,83.50
2018-12-11T06:42:57.215Z,84.30
2018-12-11T06:48:00.379Z,84.50
2018-12-11T06:53:03.471Z,85.80
2018-12-11T06:58:06.671Z,87.90
2018-12-11T07:03:09.804Z,89.70
2018-12-11T07:08:17.483Z,90.30
2018-12-11T07:13:20.560Z,90.50
2018-12-11T07:18:26.067Z,90.50
2018-12-11T07:23:28.868Z,90.90
2018-12-11T07:28:32.077Z,90.70
2018-12-11T07:33:35.245Z,90.70
2018-12-11T07:38:38.311Z,90.90
2018-12-11T07:43:41.423Z,91.50
2018-12-11T07:48:44.547Z,91.40
2018-12-11T07:53:47.653Z,91.70
2018-12-11T07:58:50.787Z,91.40
2018-12-11T08:04:00.668Z,91.80
2018-12-11T08:34:13.520Z,91.80
2018-12-11T08:39:16.700Z,92.30
2018-12-11T08:44:19.865Z,92.80
2018-12-11T08:49:22.954Z,92.80
2018-12-11T08:54:26.103Z,93.60
2018-12-11T08:59:29.309Z,92.90
2018-12-11T09:04:32.415Z,93.30
2018-12-11T09:09:35.585Z,93.20
2018-12-11T09:14:38.732Z,93.30
2018-12-11T09:19:41.903Z,93.10
2018-12-11T09:24:45.036Z,92.90
2018-12-11T09:29:48.181Z,93.00
2018-12-11T09:34:51.439Z,93.00
2018-12-11T09:39:54.612Z,93.00
2018-12-11T09:44:57.766Z,93.20
2018-12-11T09:50:00.909Z,92.30
2018-12-11T09:55:04.054Z,92.70
2018-12-11T10:00:08.568Z,92.40
2018-12-11T10:05:11.715Z,92.60
2018-12-11T10:10:14.880Z,92.50
2018-12-11T10:15:18.091Z,92.00
2018-12-11T10:20:21.542Z,92.70
2018-12-11T10:25:24.867Z,92.60
2018-12-11T10:30:32.366Z,92.20
2018-12-11T10:35:35.484Z,92.20
2018-12-11T10:40:38.638Z,92.30
2018-12-11T10:45:41.808Z,91.50
2018-12-11T10:50:45.023Z,91.30
2018-12-11T10:55:48.325Z,91.80
2018-12-11T11:00:57.297Z,92.00
2018-12-11T11:06:00.493Z,91.70
2018-12-11T11:11:03.651Z,91.90
2018-12-11T11:16:11.077Z,91.90
2018-12-11T11:21:14.265Z,91.50
2018-12-11T11:26:17.401Z,92.10
2018-12-11T11:31:20.625Z,91.70
2018-12-11T11:36:23.747Z,92.50
2018-12-11T11:41:26.856Z,92.10
2018-12-11T11:46:30.012Z,92.40
2018-12-11T11:51:33.136Z,92.40
2018-12-11T11:56:36.329Z,92.20
2018-12-11T12:01:39.452Z,92.40
2018-12-11T12:06:42.595Z,91.70
2018-12-11T12:11:45.709Z,92.00
2018-12-11T12:16:48.820Z,91.40
2018-12-11T12:21:51.926Z,91.30
2018-12-11T12:26:55.045Z,91.00
2018-12-11T12:31:58.197Z,91.40
2018-12-11T12:37:01.359Z,91.20
2018-12-11T12:42:04.571Z,91.00
2018-12-11T12:47:07.720Z,91.20
2018-12-11T12:52:10.882Z,91.30
2018-12-11T12:57:14.067Z,91.30
2018-12-11T13:02:17.233Z,91.40
2018-12-11T13:07:20.378Z,91.10
2018-12-11T13:12:23.532Z,91.30
2018-12-11T13:17:26.648Z,91.80
2018-12-11T13:22:29.795Z,91.20
2018-12-11T13:27:32.971Z,91.30
2018-12-11T13:32:36.124Z,91.40
2018-12-11T13:37:39.285Z,91.20
2018-12-11T13:42:42.469Z,91.70
2018-12-11T13:47:45.763Z,91.30
2018-12-11T13:52:48.924Z,90.90
2018-12-11T13:57:52.048Z,91.60
2018-12-11T14:02:55.224Z,91.00
2018-12-11T14:07:58.335Z,91.40
2018-12-11T14:13:01.521Z,91.10
2018-12-11T14:18:04.782Z,91.00
2018-12-11T14:23:07.980Z,90.80
2018-12-11T14:28:11.307Z,90.90
2018-12-11T14:33:14.595Z,90.70
2018-12-11T14:38:17.943Z,90.40
2018-12-11T14:43:21.419Z,90.70
2018-12-11T14:48:24.606Z,90.80
2018-12-11T14:53:27.808Z,91.00
2018-12-11T14:58:30.993Z,90.90
2018-12-11T15:03:34.208Z,90.90
2018-12-11T15:08:37.341Z,91.20
2018-12-11T15:13:40.522Z,91.50
2018-12-11T15:18:43.711Z,91.10
2018-12-11T15:23:46.863Z,91.20
2018-12-11T15:28:55.163Z,91.30
2018-12-11T15:33:58.356Z,91.20
2018-12-11T15:39:01.491Z,91.30
2018-12-11T15:44:04.668Z,90.90
2018-12-11T15:49:07.876Z,91.30
2018-12-11T15:54:11.067Z,91.20
2018-12-11T15:59:14.288Z,91.90
2018-12-11T16:04:17.413Z,91.50
2018-12-11T16:09:24.995Z,91.20
2018-12-11T16:14:28.107Z,91.10
2018-12-11T16:19:31.348Z,91.20
2018-12-11T16:24:34.557Z,91.70
2018-12-11T16:29:37.687Z,92.10
2018-12-11T16:34:40.955Z,92.70
2018-12-11T16:39:44.139Z,92.80
2018-12-11T16:44:47.533Z,92.90
2018-12-11T16:49:50.812Z,92.30
2018-12-11T16:54:53.979Z,92.70
2018-12-11T16:59:57.227Z,92.80
2018-12-11T17:05:00.379Z,93.20
2018-12-11T17:10:04.137Z,93.00
2018-12-11T17:15:15.940Z,93.40
2018-12-11T17:20:19.224Z,93.10
2018-12-11T17:25:22.760Z,93.20
2018-12-11T17:30:25.981Z,93.30
2018-12-11T17:35:29.145Z,93.20
2018-12-11T17:40:32.258Z,93.20
2018-12-11T17:45:35.524Z,93.20
2018-12-11T17:50:39.649Z,93.40
2018-12-11T17:55:42.856Z,93.00
2018-12-11T18:00:46.128Z,93.20
2018-12-11T18:05:49.324Z,93.40
2018-12-11T18:10:52.508Z,93.30
2018-12-11T18:15:55.699Z,93.40
2018-12-11T18:20:58.933Z,93.10
2018-12-11T18:26:02.187Z,93.50
2018-12-11T18:31:05.341Z,93.10
2018-12-11T18:36:08.790Z,93.30
2018-12-11T18:41:11.979Z,93.30
2018-12-11T18:46:15.228Z,93.30
2018-12-11T18:51:20.540Z,93.40
2018-12-11T18:56:23.709Z,93.60
2018-12-11T19:01:26.884Z,93.40
2018-12-11T19:06:30.171Z,93.70
2018-12-11T19:11:33.503Z,93.20
2018-12-11T19:16:36.650Z,93.10
2018-12-11T19:21:39.804Z,93.40
2018-12-11T19:26:42.953Z,93.60
2018-12-11T19:31:46.091Z,94.00
2018-12-11T19:36:49.268Z,93.70
2018-12-11T19:41:52.551Z,93.80
2018-12-11T19:46:55.714Z,93.30
2018-12-11T19:51:58.860Z,93.80
2018-12-11T19:57:02.089Z,93.50
2018-12-11T20:02:05.403Z,93.60
2018-12-11T20:07:08.597Z,93.70
2018-12-11T20:12:11.824Z,93.40
2018-12-11T20:17:14.975Z,93.50
2018-12-11T20:22:18.367Z,93.30
2018-12-11T20:27:21.467Z,93.50
2018-12-11T20:32:24.604Z,93.60
2018-12-11T20:37:27.688Z,93.20
2018-12-11T20:42:30.802Z,93.20
2018-12-11T20:47:33.876Z,93.90
2018-12-11T20:52:37.036Z,93.40
2018-12-11T20:57:40.252Z,93.50
2018-12-11T21:02:43.397Z,93.70
2018-12-11T21:07:46.512Z,93.50
2018-12-11T21:12:49.711Z,94.30
2018-12-11T21:17:52.771Z,93.80
2018-12-11T21:22:55.855Z,93.70
2018-12-11T21:27:58.984Z,94.20
2018-12-11T21:33:02.131Z,93.90
2018-12-11T21:38:05.308Z,93.50
2018-12-11T21:43:08.455Z,94.80
2018-12-11T21:48:11.582Z,93.70
2018-12-11T21:53:14.696Z,93.80
2018-12-11T21:58:18.069Z,93.80
2018-12-11T22:03:21.583Z,93.30
2018-12-11T22:08:24.874Z,93.30
2018-12-11T22:13:28.029Z,93.50
2018-12-11T22:18:31.217Z,92.90
2018-12-11T22:23:34.386Z,93.20
2018-12-11T22:28:37.827Z,92.30
2018-12-11T22:33:41.032Z,92.40
2018-12-11T22:38:44.139Z,92.60
2018-12-11T22:43:47.347Z,93.20
2018-12-11T22:48:50.772Z,93.00
2018-12-11T22:53:54.023Z,92.80
2018-12-11T22:58:57.121Z,93.10
2018-12-11T23:04:00.284Z,93.00
2018-12-11T23:09:04.522Z,92.60
2018-12-11T23:14:07.667Z,92.50
2018-12-11T23:19:10.796Z,92.70
2018-12-11T23:24:13.972Z,92.30
2018-12-11T23:29:17.181Z,92.30
2018-12-11T23:34:20.317Z,92.10
2018-12-11T23:39:23.424Z,92.40
2018-12-11T23:44:26.581Z,92.50
2018-12-11T23:49:29.636Z,92.90
2018-12-11T23:54:32.795Z,92.70
2018-12-11T23:59:35.873Z,92.70
